createdAt,value
2023-05-20T00:01:12.863Z,79.55
2023-05-20T00:04:15.242Z,79.59
2023-05-20T00:07:17.210Z,79.63
2023-05-20T00:10:18.924Z,79.65
2023-05-20T00:13:20.684Z,79.69
2023-05-20T00:16:22.490Z,79.73
2023-05-20T00:19:24.359Z,79.72
2023-05-20T00:22:26.140Z,79.74
2023-05-20T00:25:28.030Z,79.77
2023-05-20T00:28:30.120Z,79.78
2023-05-20T00:31:31.908Z,79.86
2023-05-20T00:34:33.712Z,79.88
2023-05-20T00:37:35.494Z,79.91
2023-05-20T00:40:37.354Z,79.92
2023-05-20T00:43:39.117Z,79.91
2023-05-20T00:46:41.012Z,79.85
2023-05-20T00:49:50.359Z,79.72
2023-05-20T00:52:54.834Z,79.65
2023-05-20T00:55:56.726Z,79.58
2023-05-20T00:58:58.519Z,79.59
2023-05-20T01:02:01.237Z,79.64
2023-05-20T01:05:03.245Z,79.71
2023-05-20T01:08:05.113Z,79.77
2023-05-20T01:11:10.932Z,79.76
2023-05-20T01:14:17.238Z,79.75
2023-05-20T01:17:20.415Z,79.79
2023-05-20T01:20:22.320Z,79.83
2023-05-20T01:23:32.036Z,79.79
2023-05-20T01:26:37.726Z,79.80
2023-05-20T01:29:41.607Z,79.83
2023-05-20T01:32:47.952Z,79.79
2023-05-20T01:35:49.775Z,79.79
2023-05-20T01:38:53.728Z,79.77
2023-05-20T01:41:56.116Z,79.76
2023-05-20T01:44:58.967Z,79.73
2023-05-20T01:48:02.184Z,79.73
2023-05-20T01:51:04.062Z,79.73
2023-05-20T01:54:05.756Z,79.72
2023-05-20T01:57:07.548Z,79.70
2023-05-20T02:00:10.312Z,79.64
2023-05-20T02:03:19.423Z,79.59
2023-05-20T02:06:21.255Z,79.58
2023-05-20T02:09:23.049Z,79.59
2023-05-20T02:12:27.238Z,79.63
2023-05-20T02:15:29.095Z,79.61
2023-05-20T02:18:32.120Z,79.58
2023-05-20T02:21:34.701Z,79.61
2023-05-20T02:24:36.509Z,79.66
2023-05-20T02:27:40.036Z,79.76
2023-05-20T02:30:41.729Z,79.80
2023-05-20T02:33:44.292Z,79.82
2023-05-20T02:36:46.205Z,79.84
2023-05-20T02:39:48.066Z,79.83
2023-05-20T02:42:50.025Z,79.80
2023-05-20T02:45:51.857Z,79.76
2023-05-20T02:48:53.613Z,79.72
2023-05-20T02:51:55.865Z,79.76
2023-05-20T02:54:58.047Z,79.84
2023-05-20T02:58:00.370Z,79.85
2023-05-20T03:01:02.829Z,79.86
2023-05-20T03:04:04.955Z,79.84
2023-05-20T03:07:09.554Z,79.82
2023-05-20T03:10:11.371Z,79.91
2023-05-20T03:13:14.705Z,80.01
2023-05-20T03:16:16.667Z,80.04
2023-05-20T03:19:19.220Z,80.07
2023-05-20T03:22:21.161Z,80.12
2023-05-20T03:25:24.561Z,80.21
2023-05-20T03:28:26.337Z,80.29
2023-05-20T03:31:28.896Z,80.33
2023-05-20T03:34:30.695Z,80.39
2023-05-20T03:37:32.447Z,80.44
2023-05-20T03:40:34.224Z,80.48
2023-05-20T03:43:35.974Z,80.51
2023-05-20T03:46:37.859Z,80.59
2023-05-20T03:49:40.601Z,80.69
2023-05-20T03:52:42.319Z,80.77
2023-05-20T03:55:44.277Z,80.76
2023-05-20T03:58:47.108Z,80.78
2023-05-20T04:01:48.932Z,80.87
2023-05-20T04:04:57.061Z,80.96
2023-05-20T04:07:59.856Z,81.07
2023-05-20T04:11:02.098Z,81.11
2023-05-20T04:14:03.925Z,81.02
2023-05-20T04:17:05.739Z,81.00
2023-05-20T04:20:08.097Z,81.00
2023-05-20T04:23:10.723Z,81.12
2023-05-20T04:26:12.689Z,81.16
2023-05-20T04:29:15.520Z,81.24
2023-05-20T04:32:18.831Z,81.30
2023-05-20T04:35:21.033Z,81.38
2023-05-20T04:38:29.588Z,81.44
2023-05-20T04:41:31.627Z,81.45
2023-05-20T04:44:33.849Z,81.48
2023-05-20T04:47:38.069Z,81.53
2023-05-20T04:50:41.265Z,81.49
2023-05-20T04:53:46.031Z,81.46
2023-05-20T04:56:47.992Z,81.52
2023-05-20T04:59:49.746Z,81.61
2023-05-20T05:02:51.624Z,81.67
2023-05-20T05:05:57.712Z,81.77
2023-05-20T05:08:59.625Z,81.84
2023-05-20T05:12:02.187Z,81.85
2023-05-20T05:15:04.623Z,81.88
2023-05-20T05:18:06.527Z,81.91
2023-05-20T05:21:08.762Z,81.95
2023-05-20T05:24:10.998Z,82.03
2023-05-20T05:27:13.001Z,82.09
2023-05-20T05:30:14.761Z,82.16
2023-05-20T05:33:16.990Z,82.18
2023-05-20T05:36:19.014Z,82.23
2023-05-20T05:39:21.119Z,82.23
2023-05-20T05:42:22.978Z,82.26
2023-05-20T05:45:24.950Z,82.37
2023-05-20T05:48:26.768Z,82.44
2023-05-20T05:51:28.667Z,82.42
2023-05-20T05:54:30.616Z,82.44
2023-05-20T05:57:32.527Z,82.42
2023-05-20T06:00:34.430Z,82.48
2023-05-20T06:03:36.743Z,82.50
2023-05-20T06:06:38.552Z,82.41
2023-05-20T06:09:40.299Z,82.35
2023-05-20T06:12:42.815Z,82.28
2023-05-20T06:15:45.639Z,82.16
2023-05-20T06:18:49.729Z,82.11
2023-05-20T06:21:51.558Z,82.08
2023-05-20T06:24:56.076Z,81.99
2023-05-20T06:27:57.897Z,81.95
2023-05-20T06:31:00.225Z,81.97
2023-05-20T06:34:04.991Z,81.98
2023-05-20T06:37:06.845Z,82.01
2023-05-20T06:40:09.358Z,82.06
2023-05-20T06:43:11.631Z,82.09
2023-05-20T06:46:28.391Z,82.09
2023-05-20T06:49:35.260Z,82.10
2023-05-20T06:52:37.162Z,82.13
2023-05-20T06:55:39.172Z,82.25
2023-05-20T06:58:41.901Z,82.19
2023-05-20T07:01:44.085Z,82.08
2023-05-20T07:04:46.857Z,81.96
2023-05-20T07:07:48.831Z,81.92
2023-05-20T07:10:50.942Z,81.93
2023-05-20T07:13:55.830Z,81.92
2023-05-20T07:16:59.344Z,81.90
2023-05-20T07:20:03.626Z,81.92
2023-05-20T07:23:05.676Z,81.92
2023-05-20T07:26:14.623Z,81.97
2023-05-20T07:29:16.450Z,82.02
2023-05-20T07:32:19.470Z,82.05
2023-05-20T07:35:21.229Z,81.91
2023-05-20T07:38:23.027Z,81.92
2023-05-20T07:41:34.606Z,81.98
2023-05-20T07:44:36.564Z,81.73
2023-05-20T07:47:39.476Z,81.61
2023-05-20T07:50:41.265Z,81.65
2023-05-20T07:53:43.311Z,81.66
2023-05-20T07:56:45.719Z,81.48
2023-05-20T07:59:48.029Z,81.33
2023-05-20T08:02:50.733Z,81.32
2023-05-20T08:05:56.963Z,81.23
2023-05-20T08:08:59.519Z,81.11
2023-05-20T08:12:05.519Z,81.08
2023-05-20T08:15:07.578Z,81.16
2023-05-20T08:18:10.361Z,81.25
2023-05-20T08:21:13.371Z,81.05
2023-05-20T08:24:15.396Z,81.09
2023-05-20T08:27:17.111Z,81.00
2023-05-20T08:30:19.116Z,80.84
2023-05-20T08:33:21.994Z,80.92
2023-05-20T08:36:24.067Z,80.74
2023-05-20T08:39:26.642Z,80.86
2023-05-20T08:42:31.020Z,80.71
2023-05-20T08:45:37.368Z,80.60
2023-05-20T08:48:41.869Z,80.45
2023-05-20T08:51:45.594Z,80.16
2023-05-20T08:54:49.229Z,79.97
2023-05-20T08:57:51.341Z,79.97
2023-05-20T09:00:53.041Z,79.90
2023-05-20T09:03:54.831Z,80.06
2023-05-20T09:06:56.595Z,79.93
2023-05-20T09:09:58.361Z,79.91
2023-05-20T09:13:02.126Z,79.87
2023-05-20T09:16:04.300Z,79.74
2023-05-20T09:19:06.916Z,79.80
2023-05-20T09:22:09.222Z,80.10
2023-05-20T09:25:12.690Z,79.93
2023-05-20T09:28:14.377Z,79.93
2023-05-20T09:31:16.525Z,79.66
2023-05-20T09:34:20.012Z,79.85
2023-05-20T09:37:22.107Z,79.90
2023-05-20T09:40:28.275Z,79.85
2023-05-20T09:43:30.819Z,79.36
2023-05-20T09:46:33.892Z,79.25
2023-05-20T09:49:37.720Z,79.74
2023-05-20T09:52:39.503Z,79.08
2023-05-20T09:55:41.970Z,78.78
2023-05-20T09:58:45.254Z,78.60
2023-05-20T10:01:49.773Z,78.94
2023-05-20T10:04:54.033Z,79.37
2023-05-20T10:08:11.230Z,79.00
2023-05-20T10:11:48.127Z,78.82
2023-05-20T10:15:23.596Z,78.70
2023-05-20T10:18:40.506Z,78.68
2023-05-20T10:21:43.731Z,78.60
2023-05-20T10:24:45.608Z,78.07
2023-05-20T10:27:47.965Z,78.28
2023-05-20T10:30:50.526Z,78.02
2023-05-20T10:33:53.321Z,77.78
2023-05-20T10:36:55.232Z,77.06
2023-05-20T10:40:10.993Z,77.38
2023-05-20T10:43:13.974Z,77.44
2023-05-20T10:46:31.836Z,76.77
2023-05-20T10:49:47.759Z,76.53
2023-05-20T10:52:49.677Z,76.55
2023-05-20T10:55:52.801Z,76.60
2023-05-20T10:58:55.451Z,76.43
2023-05-20T11:01:57.483Z,76.58
2023-05-20T11:05:00.282Z,76.41
2023-05-20T11:08:08.539Z,75.54
2023-05-20T11:11:22.342Z,75.74
2023-05-20T11:14:24.384Z,74.77
2023-05-20T11:17:26.191Z,73.96
2023-05-20T11:20:28.295Z,73.39
2023-05-20T11:23:30.326Z,73.70
2023-05-20T11:26:32.732Z,73.48
2023-05-20T11:29:34.752Z,72.81
2023-05-20T11:32:36.696Z,72.44
2023-05-20T11:35:51.297Z,72.12
2023-05-20T11:38:53.063Z,71.85
2023-05-20T11:41:55.130Z,71.52
2023-05-20T11:45:01.221Z,71.52
2023-05-20T11:48:05.286Z,71.24
2023-05-20T11:51:07.992Z,71.53
2023-05-20T11:54:10.095Z,71.80
2023-05-20T11:57:11.730Z,71.67
2023-05-20T12:00:13.587Z,71.79
2023-05-20T12:03:15.999Z,71.15
2023-05-20T12:06:17.829Z,71.54
2023-05-20T12:09:19.570Z,70.48
2023-05-20T12:12:21.365Z,69.98
2023-05-20T12:15:25.527Z,69.84
2023-05-20T12:18:27.326Z,69.18
2023-05-20T12:21:30.639Z,69.61
2023-05-20T12:24:32.391Z,69.47
2023-05-20T12:27:34.153Z,70.38
2023-05-20T12:30:36.177Z,70.45
2023-05-20T12:33:38.053Z,69.90
2023-05-20T12:36:39.885Z,69.68
2023-05-20T12:39:41.602Z,70.16
2023-05-20T12:42:43.997Z,69.03
2023-05-20T12:45:46.306Z,68.71
2023-05-20T12:48:48.230Z,68.40
2023-05-20T12:51:50.051Z,68.89
2023-05-20T12:54:53.541Z,68.28
2023-05-20T12:57:55.746Z,68.62
2023-05-20T13:00:57.567Z,68.24
2023-05-20T13:03:59.348Z,68.34
2023-05-20T13:07:01.570Z,67.28
2023-05-20T13:10:03.847Z,67.52
2023-05-20T13:13:05.677Z,67.38
2023-05-20T13:16:07.489Z,67.98
2023-05-20T13:19:09.290Z,67.36
2023-05-20T13:22:11.410Z,67.19
2023-05-20T13:25:13.253Z,67.56
2023-05-20T13:28:18.228Z,66.86
2023-05-20T13:31:20.139Z,66.95
2023-05-20T13:34:21.862Z,67.44
2023-05-20T13:37:23.605Z,67.75
2023-05-20T13:40:25.466Z,67.77
2023-05-20T13:43:28.034Z,67.92
2023-05-20T13:46:29.861Z,67.37
2023-05-20T13:49:31.646Z,66.66
2023-05-20T13:52:33.527Z,66.34
2023-05-20T13:55:35.851Z,67.11
2023-05-20T13:58:38.168Z,66.49
2023-05-20T14:01:44.292Z,65.82
2023-05-20T14:04:46.455Z,65.59
2023-05-20T14:07:48.523Z,65.54
2023-05-20T14:10:54.151Z,65.83
2023-05-20T14:13:55.932Z,65.95
2023-05-20T14:16:58.005Z,66.73
2023-05-20T14:20:00.129Z,65.71
2023-05-20T14:23:01.956Z,66.03
2023-05-20T14:26:03.743Z,65.14
2023-05-20T14:29:05.725Z,65.30
2023-05-20T14:32:08.399Z,64.99
2023-05-20T14:35:10.403Z,65.34
2023-05-20T14:38:12.083Z,65.04
2023-05-20T14:41:13.774Z,65.30
2023-05-20T14:44:15.485Z,65.07
2023-05-20T14:47:21.410Z,64.85
2023-05-20T14:50:23.201Z,64.33
2023-05-20T14:53:25.022Z,63.64
2023-05-20T14:56:26.796Z,63.70
2023-05-20T14:59:28.578Z,63.75
2023-05-20T15:02:30.642Z,63.33
2023-05-20T15:05:32.564Z,62.84
2023-05-20T15:08:34.302Z,63.27
2023-05-20T15:11:36.030Z,63.15
2023-05-20T15:14:37.977Z,63.46
2023-05-20T15:17:39.924Z,63.40
2023-05-20T15:20:41.920Z,63.01
2023-05-20T15:23:43.834Z,62.69
2023-05-20T15:26:46.059Z,62.47
2023-05-20T15:29:48.113Z,62.84
2023-05-20T15:32:50.066Z,63.19
2023-05-20T15:35:51.788Z,63.40
2023-05-20T15:38:53.626Z,63.75
2023-05-20T15:41:55.458Z,64.34
2023-05-20T15:44:57.392Z,63.90
2023-05-20T15:47:59.636Z,63.81
2023-05-20T15:51:01.417Z,64.11
2023-05-20T15:54:03.102Z,63.72
2023-05-20T15:57:05.189Z,63.48
2023-05-20T16:00:09.848Z,63.33
2023-05-20T16:03:11.783Z,63.69
2023-05-20T16:06:13.901Z,63.67
2023-05-20T16:09:15.908Z,63.77
2023-05-20T16:12:18.612Z,63.34
2023-05-20T16:15:20.425Z,63.50
2023-05-20T16:18:23.015Z,63.49
2023-05-20T16:21:25.525Z,63.93
2023-05-20T16:24:27.238Z,63.92
2023-05-20T16:27:29.089Z,64.18
2023-05-20T16:30:30.994Z,64.40
2023-05-20T16:33:32.751Z,64.88
2023-05-20T16:36:34.505Z,64.89
2023-05-20T16:39:36.253Z,64.85
2023-05-20T16:42:39.135Z,65.06
2023-05-20T16:45:40.983Z,65.09
2023-05-20T16:48:42.767Z,65.45
2023-05-20T16:51:44.712Z,65.83
2023-05-20T16:54:46.498Z,66.08
2023-05-20T16:57:49.895Z,66.49
2023-05-20T17:00:51.769Z,66.60
2023-05-20T17:03:53.606Z,66.75
2023-05-20T17:06:56.256Z,66.90
2023-05-20T17:09:57.993Z,66.94
2023-05-20T17:13:01.077Z,67.28
2023-05-20T17:16:03.078Z,67.39
2023-05-20T17:19:04.838Z,67.63
2023-05-20T17:22:06.823Z,67.91
2023-05-20T17:25:08.838Z,68.05
2023-05-20T17:28:10.688Z,67.91
2023-05-20T17:31:13.096Z,68.30
2023-05-20T17:34:14.867Z,68.55
2023-05-20T17:37:16.686Z,68.85
2023-05-20T17:40:20.144Z,68.96
2023-05-20T17:43:24.624Z,69.21
2023-05-20T17:46:26.655Z,69.55
2023-05-20T17:49:28.452Z,69.62
2023-05-20T17:52:30.364Z,69.82
2023-05-20T17:55:35.550Z,69.95
2023-05-20T17:58:37.437Z,70.00
2023-05-20T18:01:39.315Z,70.30
2023-05-20T18:04:41.112Z,70.75
2023-05-20T18:07:43.770Z,70.90
2023-05-20T18:10:46.278Z,71.11
2023-05-20T18:13:48.361Z,71.46
2023-05-20T18:16:50.282Z,71.61
2023-05-20T18:19:52.068Z,71.76
2023-05-20T18:22:57.767Z,71.94
2023-05-20T18:25:59.522Z,72.11
2023-05-20T18:29:01.252Z,72.26
2023-05-20T18:32:03.211Z,72.49
2023-05-20T18:35:06.740Z,72.60
2023-05-20T18:38:08.623Z,72.67
2023-05-20T18:41:10.556Z,72.43
2023-05-20T18:44:13.242Z,72.68
2023-05-20T18:47:16.511Z,72.82
2023-05-20T18:50:21.208Z,73.05
2023-05-20T18:53:23.065Z,73.20
2023-05-20T18:56:25.897Z,73.31
2023-05-20T18:59:27.621Z,73.48
2023-05-20T19:02:29.399Z,73.76
2023-05-20T19:05:31.344Z,73.88
2023-05-20T19:08:33.256Z,74.01
2023-05-20T19:11:35.293Z,74.16
2023-05-20T19:14:37.033Z,74.32
2023-05-20T19:17:38.984Z,74.45
2023-05-20T19:20:40.804Z,74.53
2023-05-20T19:23:42.712Z,74.63
2023-05-20T19:26:44.964Z,74.61
2023-05-20T19:29:46.636Z,74.71
2023-05-20T19:32:48.508Z,74.51
2023-05-20T19:35:50.624Z,74.63
2023-05-20T19:38:52.323Z,74.74
2023-05-20T19:41:54.385Z,74.57
2023-05-20T19:49:28.848Z,74.84
2023-05-20T19:52:31.512Z,74.27
2023-05-20T19:55:35.284Z,74.05
2023-05-20T19:58:37.424Z,73.62
2023-05-20T20:01:39.196Z,73.45
2023-05-20T20:04:44.009Z,73.41
2023-05-20T20:07:45.748Z,73.17
2023-05-20T20:10:48.550Z,73.09
2023-05-20T20:13:53.123Z,72.97
2023-05-20T20:16:54.975Z,72.58
2023-05-20T20:19:57.362Z,72.44
2023-05-20T20:22:59.099Z,72.17
2023-05-20T20:26:01.423Z,72.03
2023-05-20T20:29:03.202Z,71.85
2023-05-20T20:32:05.378Z,72.05
2023-05-20T20:35:07.887Z,71.97
2023-05-20T20:38:09.763Z,72.10
2023-05-20T20:41:17.476Z,72.01
2023-05-20T20:44:22.260Z,71.97
2023-05-20T20:47:28.574Z,72.12
2023-05-20T20:50:31.185Z,71.94
2023-05-20T20:53:32.916Z,71.95
2023-05-20T20:56:38.925Z,71.91
2023-05-20T20:59:46.898Z,71.78
2023-05-20T21:02:48.730Z,71.79
2023-05-20T21:05:51.202Z,71.73
2023-05-20T21:08:57.467Z,71.64
2023-05-20T21:11:59.833Z,71.44
2023-05-20T21:15:01.693Z,71.51
2023-05-20T21:18:03.513Z,71.62
2023-05-20T21:21:09.381Z,71.77
2023-05-20T21:24:11.094Z,71.64
2023-05-20T21:27:13.455Z,71.72
2023-05-20T21:30:16.695Z,71.72
2023-05-20T21:33:18.875Z,71.64
2023-05-20T21:36:20.700Z,71.70
2023-05-20T21:39:22.589Z,71.73
2023-05-20T21:42:24.397Z,71.82
2023-05-20T21:45:26.106Z,71.95
2023-05-20T21:48:27.827Z,71.99
2023-05-20T21:51:30.814Z,72.02
2023-05-20T21:54:32.562Z,72.06
2023-05-20T21:57:34.628Z,72.12
2023-05-20T22:00:36.389Z,72.14
2023-05-20T22:03:39.209Z,72.09
2023-05-20T22:06:41.057Z,72.08
2023-05-20T22:09:42.788Z,72.16
2023-05-20T22:12:45.115Z,72.21
2023-05-20T22:15:46.784Z,72.26
2023-05-20T22:18:49.044Z,72.30
2023-05-20T22:21:51.303Z,72.38
2023-05-20T22:24:53.332Z,72.35
2023-05-20T22:27:55.179Z,72.41
2023-05-20T22:30:57.258Z,72.54
2023-05-20T22:33:59.278Z,72.64
2023-05-20T22:37:02.452Z,72.67
2023-05-20T22:40:04.791Z,72.67
2023-05-20T22:43:06.706Z,72.71
2023-05-20T22:46:08.699Z,72.83
2023-05-20T22:49:12.203Z,72.81
2023-05-20T22:52:14.183Z,72.95
2023-05-20T22:55:15.999Z,73.01
2023-05-20T22:58:18.114Z,73.07
2023-05-20T23:01:20.972Z,73.12
2023-05-20T23:04:22.779Z,73.21
2023-05-20T23:07:24.527Z,73.25
2023-05-20T23:10:26.405Z,73.23
2023-05-20T23:13:28.243Z,73.35
2023-05-20T23:16:31.082Z,73.33
2023-05-20T23:19:33.053Z,73.44
2023-05-20T23:22:34.768Z,73.46
2023-05-20T23:25:36.798Z,73.55
2023-05-20T23:28:38.792Z,73.57
2023-05-20T23:31:40.747Z,73.49
2023-05-20T23:34:42.937Z,73.62
2023-05-20T23:37:45.421Z,73.59
2023-05-20T23:40:48.161Z,73.53
2023-05-20T23:43:50.142Z,73.63
2023-05-20T23:46:53.082Z,73.59
2023-05-20T23:49:59.502Z,73.65
2023-05-20T23:53:01.212Z,73.81
2023-05-20T23:56:03.595Z,73.82
2023-05-20T23:59:06.728Z,73.74
